createdAt,value
2018-09-17T00:01:44.494Z,15.20
2018-09-17T00:04:13.041Z,15.80
2018-09-17T00:06:41.547Z,17.23
2018-09-17T00:09:11.323Z,17.17
2018-09-17T00:11:39.833Z,16.47
2018-09-17T00:14:08.355Z,23.77
2018-09-17T00:16:37.301Z,18.70
2018-09-17T00:19:05.972Z,17.40
2018-09-17T00:21:34.777Z,16.67
2018-09-17T00:24:03.230Z,16.77
2018-09-17T00:26:31.709Z,18.03
2018-09-17T00:29:00.226Z,18.40
2018-09-17T00:31:28.669Z,17.87
2018-09-17T00:33:57.138Z,13.30
2018-09-17T00:36:25.594Z,18.20
2018-09-17T00:38:54.056Z,15.53
2018-09-17T00:41:22.616Z,21.73
2018-09-17T00:43:51.071Z,14.87
2018-09-17T00:46:19.642Z,16.53
2018-09-17T00:48:48.136Z,19.67
2018-09-17T00:51:17.260Z,13.97
2018-09-17T00:53:45.755Z,16.50
2018-09-17T00:56:14.245Z,14.97
2018-09-17T00:58:42.681Z,14.20
2018-09-17T01:01:11.123Z,13.07
2018-09-17T01:03:39.590Z,13.33
2018-09-17T01:06:08.127Z,14.17
2018-09-17T01:08:36.608Z,15.10
2018-09-17T01:11:05.112Z,15.80
2018-09-17T01:13:33.581Z,15.83
2018-09-17T01:16:02.031Z,14.30
2018-09-17T01:18:30.490Z,16.07
2018-09-17T01:20:58.937Z,14.23
2018-09-17T01:23:27.410Z,12.27
2018-09-17T01:25:55.909Z,15.90
2018-09-17T01:28:24.331Z,18.17
2018-09-17T01:30:52.801Z,12.90
2018-09-17T01:33:21.265Z,13.83
2018-09-17T01:35:49.722Z,14.67
2018-09-17T01:38:18.256Z,15.90
2018-09-17T01:40:46.705Z,14.63
2018-09-17T01:43:15.200Z,12.50
2018-09-17T01:45:43.732Z,13.30
2018-09-17T01:48:12.264Z,15.90
2018-09-17T01:50:40.691Z,14.20
2018-09-17T01:53:09.146Z,12.83
2018-09-17T01:55:37.622Z,12.67
2018-09-17T01:58:06.486Z,11.10
2018-09-17T02:00:35.556Z,14.00
2018-09-17T02:03:04.117Z,11.10
2018-09-17T02:05:32.581Z,12.07
2018-09-17T02:08:01.161Z,11.07
2018-09-17T02:10:29.691Z,16.50
2018-09-17T02:12:58.136Z,14.10
2018-09-17T02:15:26.644Z,11.30
2018-09-17T02:17:55.109Z,10.00
2018-09-17T02:20:23.593Z,14.63
2018-09-17T02:22:52.055Z,11.40
2018-09-17T02:25:20.599Z,11.47
2018-09-17T02:27:49.087Z,10.20
2018-09-17T02:30:17.547Z,10.57
2018-09-17T02:32:45.996Z,13.73
2018-09-17T02:35:14.451Z,9.70
2018-09-17T02:37:42.915Z,11.43
2018-09-17T02:40:15.386Z,9.93
2018-09-17T02:42:44.451Z,10.67
2018-09-17T02:45:12.989Z,11.57
2018-09-17T02:47:41.436Z,16.27
2018-09-17T02:50:09.886Z,10.03
2018-09-17T02:52:38.357Z,26.37
2018-09-17T02:55:07.226Z,11.23
2018-09-17T02:57:36.115Z,9.93
2018-09-17T03:00:05.735Z,11.17
2018-09-17T03:02:34.202Z,11.93
2018-09-17T03:05:02.696Z,9.07
2018-09-17T03:07:32.046Z,11.13
2018-09-17T03:10:00.527Z,10.73
2018-09-17T03:12:29.062Z,12.43
2018-09-17T03:14:58.534Z,13.60
2018-09-17T03:17:27.057Z,10.03
2018-09-17T03:19:55.573Z,10.37
2018-09-17T03:22:24.126Z,10.87
2018-09-17T03:24:52.598Z,10.27
2018-09-17T03:27:21.019Z,12.43
2018-09-17T03:29:49.483Z,15.00
2018-09-17T03:32:17.929Z,11.87
2018-09-17T03:34:46.383Z,10.60
2018-09-17T03:37:14.855Z,10.07
2018-09-17T03:39:43.317Z,16.67
2018-09-17T03:42:11.801Z,12.00
2018-09-17T03:44:40.286Z,11.50
2018-09-17T03:47:08.759Z,19.63
2018-09-17T03:49:37.250Z,12.03
2018-09-17T03:52:05.689Z,11.97
2018-09-17T03:54:34.191Z,16.87
2018-09-17T03:57:02.757Z,13.23
2018-09-17T03:59:31.220Z,14.87
2018-09-17T04:01:59.670Z,14.50
2018-09-17T04:04:28.153Z,13.43
2018-09-17T04:06:56.639Z,16.07
2018-09-17T04:09:25.158Z,16.53
2018-09-17T04:11:53.640Z,16.00
2018-09-17T04:14:22.162Z,20.30
2018-09-17T04:16:50.648Z,11.80
2018-09-17T04:19:19.096Z,12.37
2018-09-17T04:21:47.591Z,12.57
2018-09-17T04:24:16.080Z,11.57
2018-09-17T04:26:44.573Z,13.60
2018-09-17T04:29:13.171Z,14.40
2018-09-17T04:31:41.714Z,19.80
2018-09-17T04:34:10.120Z,12.10
2018-09-17T04:36:38.627Z,11.93
2018-09-17T04:39:08.665Z,12.70
2018-09-17T04:41:37.221Z,14.57
2018-09-17T04:44:05.686Z,20.43
2018-09-17T04:46:34.187Z,14.90
2018-09-17T04:49:02.659Z,16.93
2018-09-17T04:51:31.151Z,16.23
2018-09-17T04:53:59.622Z,14.30
2018-09-17T04:56:28.159Z,14.40
2018-09-17T04:58:56.631Z,17.00
2018-09-17T05:01:25.803Z,17.70
2018-09-17T05:03:54.339Z,20.07
2018-09-17T05:06:23.937Z,17.70
2018-09-17T05:08:52.503Z,24.00
2018-09-17T05:11:21.009Z,22.97
2018-09-17T05:13:49.505Z,18.83
2018-09-17T05:16:18.002Z,14.67
2018-09-17T05:18:47.031Z,20.07
2018-09-17T05:21:15.513Z,15.30
2018-09-17T05:23:44.632Z,16.70
2018-09-17T05:26:13.093Z,18.83
2018-09-17T05:28:41.581Z,15.60
2018-09-17T05:31:10.082Z,13.60
2018-09-17T05:33:39.152Z,14.50
2018-09-17T05:36:07.738Z,23.03
2018-09-17T05:38:36.215Z,15.80
2018-09-17T05:41:04.789Z,17.27
2018-09-17T05:43:33.327Z,12.70
2018-09-17T05:46:01.787Z,14.70
2018-09-17T05:48:30.264Z,21.40
2018-09-17T05:50:58.710Z,25.37
2018-09-17T05:53:27.188Z,13.80
2018-09-17T05:55:55.646Z,12.53
2018-09-17T05:58:24.282Z,11.60
2018-09-17T06:00:53.512Z,16.13
2018-09-17T06:03:22.110Z,20.73
2018-09-17T06:05:50.611Z,13.97
2018-09-17T06:08:19.108Z,14.20
2018-09-17T06:10:47.577Z,16.73
2018-09-17T06:13:16.060Z,19.70
2018-09-17T06:15:44.534Z,15.57
2018-09-17T06:18:12.963Z,12.97
2018-09-17T06:20:41.389Z,13.30
2018-09-17T06:23:10.061Z,20.70
2018-09-17T06:25:38.521Z,16.57
2018-09-17T06:28:07.053Z,16.40
2018-09-17T06:30:35.483Z,15.33
2018-09-17T06:33:03.939Z,15.73
2018-09-17T06:35:32.388Z,16.87
2018-09-17T06:38:01.116Z,21.50
2018-09-17T06:40:29.748Z,19.60
2018-09-17T06:42:58.256Z,22.57
2018-09-17T06:45:26.760Z,22.70
2018-09-17T06:47:55.255Z,17.23
2018-09-17T06:50:23.748Z,16.17
2018-09-17T06:52:52.184Z,19.73
2018-09-17T06:55:20.759Z,20.20
2018-09-17T06:57:49.275Z,16.33
2018-09-17T07:00:18.433Z,18.03
2018-09-17T07:02:47.010Z,14.40
2018-09-17T07:05:15.522Z,23.13
2018-09-17T07:07:43.957Z,19.73
2018-09-17T07:10:12.407Z,21.13
2018-09-17T07:12:40.865Z,18.00
2018-09-17T07:15:09.347Z,19.63
2018-09-17T07:17:37.846Z,15.03
2018-09-17T07:20:06.333Z,19.00
2018-09-17T07:22:34.789Z,17.03
2018-09-17T07:25:03.247Z,14.67
2018-09-17T07:27:31.715Z,18.83
2018-09-17T07:30:00.166Z,15.43
2018-09-17T07:32:28.749Z,14.90
2018-09-17T07:34:57.239Z,15.63
2018-09-17T07:37:25.803Z,13.80
2018-09-17T07:39:54.319Z,16.40
2018-09-17T07:42:22.880Z,17.57
2018-09-17T07:44:51.358Z,16.33
2018-09-17T07:47:19.911Z,20.37
2018-09-17T07:49:48.351Z,15.30
2018-09-17T07:52:16.897Z,15.27
2018-09-17T07:54:45.509Z,19.73
2018-09-17T07:57:14.002Z,13.80
2018-09-17T07:59:42.501Z,18.30
2018-09-17T08:02:11.022Z,15.63
2018-09-17T08:04:39.518Z,13.87
2018-09-17T08:07:07.979Z,12.80
2018-09-17T08:09:36.474Z,13.73
2018-09-17T08:12:04.961Z,17.70
2018-09-17T08:14:33.538Z,14.47
2018-09-17T08:17:02.105Z,18.87
2018-09-17T08:19:31.255Z,11.57
2018-09-17T08:22:00.039Z,12.27
2018-09-17T08:24:28.637Z,11.30
2018-09-17T08:26:57.265Z,20.07
2018-09-17T08:29:25.797Z,14.40
2018-09-17T08:31:54.283Z,14.33
2018-09-17T08:34:22.731Z,14.73
2018-09-17T08:36:51.433Z,15.07
2018-09-17T08:39:19.913Z,11.03
2018-09-17T08:41:48.441Z,12.30
2018-09-17T08:44:16.935Z,15.50
2018-09-17T08:46:45.392Z,9.37
2018-09-17T08:49:13.839Z,9.80
2018-09-17T08:51:42.322Z,12.50
2018-09-17T08:54:10.827Z,10.40
2018-09-17T08:56:46.108Z,16.90
2018-09-17T08:59:20.105Z,12.40
2018-09-17T09:01:53.782Z,12.93
2018-09-17T09:04:32.299Z,9.23
2018-09-17T09:07:06.020Z,12.30
2018-09-17T09:09:34.512Z,11.47
2018-09-17T09:12:08.161Z,12.00
2018-09-17T09:14:40.559Z,9.23
2018-09-17T09:17:10.530Z,11.17
2018-09-17T09:19:39.569Z,9.97
2018-09-17T09:22:08.027Z,12.60
2018-09-17T09:24:37.351Z,10.50
2018-09-17T09:27:05.836Z,9.10
2018-09-17T09:29:34.310Z,9.30
2018-09-17T09:32:02.825Z,8.33
2018-09-17T09:34:31.302Z,8.43
2018-09-17T09:36:59.787Z,7.00
2018-09-17T09:39:28.252Z,13.00
2018-09-17T09:41:56.738Z,10.10
2018-09-17T09:44:25.217Z,8.07
2018-09-17T09:46:53.736Z,13.60
2018-09-17T09:49:22.191Z,10.90
2018-09-17T09:51:50.731Z,8.27
2018-09-17T09:54:19.213Z,8.60
2018-09-17T09:56:47.712Z,8.30
2018-09-17T09:59:16.153Z,8.23
2018-09-17T10:01:49.975Z,16.60
2018-09-17T10:04:21.864Z,7.63
2018-09-17T10:06:51.065Z,10.07
2018-09-17T10:09:24.850Z,7.40
2018-09-17T10:11:58.662Z,7.20
2018-09-17T10:14:32.558Z,9.87
2018-09-17T10:17:06.464Z,9.27
2018-09-17T10:19:34.980Z,8.20
2018-09-17T10:22:03.493Z,9.80
2018-09-17T10:24:31.967Z,7.80
2018-09-17T10:27:00.441Z,11.33
2018-09-17T10:29:28.911Z,9.17
2018-09-17T10:31:57.424Z,9.50
2018-09-17T10:34:25.906Z,6.97
2018-09-17T10:36:54.435Z,6.93
2018-09-17T10:39:22.908Z,8.73
2018-09-17T10:41:51.412Z,18.73
2018-09-17T10:44:19.893Z,9.70
2018-09-17T10:46:48.418Z,8.13
2018-09-17T10:49:16.846Z,6.90
2018-09-17T10:51:45.331Z,7.10
2018-09-17T10:54:13.860Z,5.77
2018-09-17T10:56:42.366Z,7.37
2018-09-17T10:59:10.890Z,11.30
2018-09-17T11:01:39.387Z,5.67
2018-09-17T11:04:07.857Z,6.93
2018-09-17T11:06:36.337Z,5.67
2018-09-17T11:09:07.438Z,6.43
2018-09-17T11:11:35.910Z,6.33
2018-09-17T11:14:04.599Z,6.13
2018-09-17T11:16:33.168Z,6.10
2018-09-17T11:19:01.634Z,4.97
2018-09-17T11:21:30.123Z,4.83
2018-09-17T11:23:58.640Z,6.13
2018-09-17T11:26:27.111Z,4.50
2018-09-17T11:28:55.602Z,5.20
2018-09-17T11:31:24.108Z,4.10
2018-09-17T11:33:52.520Z,6.03
2018-09-17T11:36:20.965Z,3.90
2018-09-17T11:38:49.422Z,7.43
2018-09-17T11:41:17.878Z,4.40
2018-09-17T11:43:46.380Z,6.50
2018-09-17T11:46:14.836Z,3.87
2018-09-17T11:48:43.364Z,4.53
2018-09-17T11:51:11.850Z,6.87
2018-09-17T11:53:40.303Z,7.47
2018-09-17T11:56:08.791Z,4.77
2018-09-17T11:58:37.266Z,4.10
2018-09-17T12:01:10.923Z,4.63
2018-09-17T12:03:44.668Z,4.87
2018-09-17T12:06:17.344Z,4.63
2018-09-17T12:08:45.887Z,4.20
2018-09-17T12:11:14.381Z,4.10
2018-09-17T12:13:42.893Z,5.30
2018-09-17T12:16:11.343Z,4.30
2018-09-17T12:18:39.857Z,5.60
2018-09-17T12:21:08.339Z,3.90
2018-09-17T12:23:36.835Z,6.67
2018-09-17T12:26:05.333Z,4.40
2018-09-17T12:28:33.813Z,4.90
2018-09-17T12:31:02.331Z,4.10
2018-09-17T12:33:30.860Z,5.50
2018-09-17T12:35:59.287Z,8.03
2018-09-17T12:38:27.797Z,6.57
2018-09-17T12:40:56.318Z,11.73
2018-09-17T12:43:24.798Z,4.67
2018-09-17T12:45:53.319Z,8.37
2018-09-17T12:48:21.824Z,11.17
2018-09-17T12:50:50.305Z,6.77
2018-09-17T12:53:18.797Z,7.90
2018-09-17T12:55:47.412Z,5.73
2018-09-17T12:58:15.885Z,4.67
2018-09-17T13:00:44.559Z,5.07
2018-09-17T13:03:13.092Z,6.50
2018-09-17T13:05:41.665Z,6.40
2018-09-17T13:08:10.120Z,8.00
2018-09-17T13:10:38.588Z,5.90
2018-09-17T13:13:07.103Z,6.00
2018-09-17T13:15:39.772Z,6.50
2018-09-17T13:18:08.333Z,5.40
2018-09-17T13:20:36.810Z,5.83
2018-09-17T13:23:05.339Z,4.67
2018-09-17T13:25:33.823Z,5.27
2018-09-17T13:28:02.454Z,7.03
2018-09-17T13:30:30.966Z,5.93
2018-09-17T13:32:59.553Z,5.60
2018-09-17T13:35:28.368Z,10.57
2018-09-17T13:37:56.839Z,11.17
2018-09-17T13:40:25.333Z,8.00
2018-09-17T13:42:53.851Z,10.97
2018-09-17T13:45:22.371Z,7.17
2018-09-17T13:47:50.865Z,6.33
2018-09-17T13:50:19.387Z,9.43
2018-09-17T13:52:48.059Z,8.50
2018-09-17T13:55:16.672Z,6.83
2018-09-17T13:57:45.146Z,6.30
2018-09-17T14:00:13.776Z,5.83
2018-09-17T14:02:42.262Z,9.80
2018-09-17T14:05:10.750Z,7.33
2018-09-17T14:07:39.572Z,10.13
2018-09-17T14:10:08.133Z,9.40
2018-09-17T14:12:40.702Z,7.10
2018-09-17T14:15:09.546Z,6.20
2018-09-17T14:17:38.030Z,7.20
2018-09-17T14:20:06.614Z,7.47
2018-09-17T14:22:35.079Z,10.70
2018-09-17T14:25:03.672Z,6.20
2018-09-17T14:27:32.241Z,6.80
2018-09-17T14:30:00.747Z,5.43
2018-09-17T14:32:34.597Z,5.77
2018-09-17T14:35:03.064Z,6.10
2018-09-17T14:37:31.603Z,6.90
2018-09-17T14:40:00.130Z,8.20
2018-09-17T14:42:28.641Z,10.10
2018-09-17T14:44:57.146Z,6.17
2018-09-17T14:47:25.634Z,8.00
2018-09-17T14:49:54.106Z,5.37
2018-09-17T14:52:22.642Z,5.83
2018-09-17T14:54:51.156Z,5.60
2018-09-17T14:57:19.692Z,6.87
2018-09-17T14:59:48.295Z,6.20
2018-09-17T15:02:16.893Z,6.43
2018-09-17T15:04:45.376Z,6.27
2018-09-17T15:07:13.896Z,5.37
2018-09-17T15:09:42.439Z,5.73
2018-09-17T15:12:10.946Z,6.27
2018-09-17T15:14:39.463Z,12.93
2018-09-17T15:17:07.990Z,6.30
2018-09-17T15:19:36.477Z,6.53
2018-09-17T15:22:04.923Z,6.87
2018-09-17T15:24:33.414Z,5.97
2018-09-17T15:27:01.926Z,6.47
2018-09-17T15:29:30.449Z,8.20
2018-09-17T15:31:58.929Z,6.07
2018-09-17T15:34:27.487Z,9.23
2018-09-17T15:36:56.006Z,6.83
2018-09-17T15:39:24.478Z,5.93
2018-09-17T15:41:52.981Z,5.83
2018-09-17T15:44:21.498Z,4.43
2018-09-17T15:46:50.038Z,6.67
2018-09-17T15:49:18.440Z,7.17
2018-09-17T15:51:46.979Z,9.13
2018-09-17T15:54:15.434Z,6.50
2018-09-17T15:56:43.905Z,11.87
2018-09-17T15:59:12.372Z,11.40
2018-09-17T16:01:41.227Z,4.93
2018-09-17T16:04:09.713Z,6.10
2018-09-17T16:06:38.191Z,7.67
2018-09-17T16:09:07.579Z,11.90
2018-09-17T16:11:36.199Z,7.13
2018-09-17T16:14:04.842Z,5.20
2018-09-17T16:16:33.391Z,5.10
2018-09-17T16:19:01.994Z,7.73
2018-09-17T16:21:31.354Z,13.80
2018-09-17T16:23:59.875Z,8.40
2018-09-17T16:26:28.423Z,9.63
2018-09-17T16:28:56.922Z,17.80
2018-09-17T16:31:25.489Z,34.00
2018-09-17T16:33:53.964Z,25.10
2018-09-17T16:36:22.503Z,20.17
2018-09-17T16:38:51.054Z,23.47
2018-09-17T16:41:19.593Z,5.13
2018-09-17T16:43:48.035Z,7.90
2018-09-17T16:46:16.620Z,6.63
2018-09-17T16:48:45.395Z,8.47
2018-09-17T16:51:13.874Z,5.33
2018-09-17T16:53:42.526Z,6.40
2018-09-17T16:56:10.968Z,7.13
2018-09-17T16:58:39.492Z,4.90
2018-09-17T17:01:07.958Z,5.97
2018-09-17T17:03:36.486Z,5.30
2018-09-17T17:06:04.951Z,5.00
2018-09-17T17:08:33.407Z,5.47
2018-09-17T17:11:02.118Z,6.57
2018-09-17T17:13:30.619Z,8.13
2018-09-17T17:15:59.199Z,10.93
2018-09-17T17:18:27.615Z,6.43
2018-09-17T17:20:56.131Z,7.70
2018-09-17T17:23:24.631Z,6.63
2018-09-17T17:25:53.109Z,8.77
2018-09-17T17:28:21.726Z,8.07
2018-09-17T17:30:50.255Z,7.97
2018-09-17T17:33:18.798Z,7.23
2018-09-17T17:35:47.322Z,7.50
2018-09-17T17:38:15.860Z,7.40
2018-09-17T17:40:44.462Z,9.20
2018-09-17T17:43:12.964Z,6.17
2018-09-17T17:45:41.499Z,6.60
2018-09-17T17:48:10.033Z,10.87
2018-09-17T17:50:38.605Z,12.43
2018-09-17T17:53:07.137Z,8.77
2018-09-17T17:55:35.674Z,9.80
2018-09-17T17:58:04.252Z,11.83
2018-09-17T18:00:32.932Z,27.33
2018-09-17T18:03:01.445Z,12.43
2018-09-17T18:05:29.952Z,9.33
2018-09-17T18:07:58.575Z,9.57
2018-09-17T18:10:27.171Z,10.43
2018-09-17T18:12:55.833Z,10.10
2018-09-17T18:15:24.457Z,11.20
2018-09-17T18:17:53.190Z,7.53
2018-09-17T18:20:21.799Z,14.80
2018-09-17T18:22:50.580Z,11.30
2018-09-17T18:25:19.336Z,8.37
2018-09-17T18:27:48.381Z,8.90
2018-09-17T18:30:17.548Z,12.63
2018-09-17T18:32:47.055Z,10.00
2018-09-17T18:35:16.470Z,10.13
2018-09-17T18:37:46.805Z,11.90
2018-09-17T18:40:16.092Z,9.87
2018-09-17T18:42:45.312Z,10.33
2018-09-17T18:45:14.792Z,8.13
2018-09-17T18:47:43.939Z,11.00
2018-09-17T18:50:13.361Z,22.33
2018-09-17T18:52:42.417Z,13.63
2018-09-17T18:55:11.571Z,8.60
2018-09-17T18:57:40.944Z,9.50
2018-09-17T19:00:11.650Z,11.30
2018-09-17T19:02:42.004Z,9.07
2018-09-17T19:05:11.593Z,13.73
2018-09-17T19:07:41.651Z,16.00
2018-09-17T19:10:12.042Z,10.70
2018-09-17T19:12:41.326Z,11.90
2018-09-17T19:15:16.153Z,12.97
2018-09-17T19:17:46.940Z,10.00
2018-09-17T19:20:16.265Z,9.67
2018-09-17T19:22:51.022Z,11.63
2018-09-17T19:25:21.415Z,12.47
2018-09-17T19:27:55.840Z,11.23
2018-09-17T19:30:25.346Z,9.13
2018-09-17T19:32:54.808Z,11.47
2018-09-17T19:35:24.501Z,11.70
2018-09-17T19:37:59.207Z,14.10
2018-09-17T19:40:28.239Z,12.70
2018-09-17T19:42:57.635Z,11.83
2018-09-17T19:45:32.082Z,14.67
2018-09-17T19:48:01.594Z,13.13
2018-09-17T19:50:36.339Z,12.03
2018-09-17T19:53:06.196Z,12.00
2018-09-17T19:55:35.699Z,12.90
2018-09-17T19:58:10.207Z,11.33
2018-09-17T20:00:39.918Z,12.60
2018-09-17T20:03:09.150Z,14.10
2018-09-17T20:05:43.797Z,13.77
2018-09-17T20:08:13.092Z,12.23
2018-09-17T20:10:43.756Z,12.70
2018-09-17T20:13:13.057Z,12.17
2018-09-17T20:15:42.053Z,10.33
2018-09-17T20:18:11.107Z,15.20
2018-09-17T20:20:40.117Z,13.37
2018-09-17T20:23:10.292Z,11.63
2018-09-17T20:25:39.560Z,13.03
2018-09-17T20:28:08.279Z,14.00
2018-09-17T20:30:36.887Z,13.10
2018-09-17T20:33:05.952Z,14.47
2018-09-17T20:35:34.620Z,13.73
2018-09-17T20:38:03.207Z,16.10
2018-09-17T20:40:31.839Z,20.03
2018-09-17T20:43:00.343Z,13.93
2018-09-17T20:45:28.912Z,16.07
2018-09-17T20:47:57.374Z,17.70
2018-09-17T20:50:25.865Z,16.40
2018-09-17T20:52:54.469Z,15.27
2018-09-17T20:55:23.058Z,18.50
2018-09-17T20:57:51.569Z,14.87
2018-09-17T21:00:20.112Z,13.17
2018-09-17T21:02:48.639Z,14.47
2018-09-17T21:05:17.223Z,17.23
2018-09-17T21:07:45.733Z,15.63
2018-09-17T21:10:14.260Z,16.10
2018-09-17T21:12:42.817Z,15.40
2018-09-17T21:15:12.154Z,17.93
2018-09-17T21:17:40.759Z,18.90
2018-09-17T21:20:09.268Z,17.10
2018-09-17T21:22:37.790Z,15.97
2018-09-17T21:25:06.372Z,16.63
2018-09-17T21:27:34.862Z,14.43
2018-09-17T21:30:03.496Z,19.10
2018-09-17T21:32:32.000Z,14.03
2018-09-17T21:35:00.583Z,10.40
2018-09-17T21:37:29.450Z,12.90
2018-09-17T21:39:57.965Z,16.07
2018-09-17T21:42:26.453Z,11.17
2018-09-17T21:44:54.965Z,18.43
2018-09-17T21:47:23.447Z,13.87
2018-09-17T21:49:51.923Z,15.53
2018-09-17T21:52:20.412Z,12.63
2018-09-17T21:54:48.919Z,11.97
2018-09-17T21:57:17.448Z,12.60
2018-09-17T21:59:45.947Z,14.27
2018-09-17T22:02:14.492Z,16.30
2018-09-17T22:04:42.978Z,14.00
2018-09-17T22:07:11.496Z,14.67
2018-09-17T22:09:39.955Z,13.93
2018-09-17T22:12:08.467Z,13.27
2018-09-17T22:14:36.970Z,17.00
2018-09-17T22:17:05.424Z,13.00
2018-09-17T22:19:33.938Z,15.43
2018-09-17T22:22:02.410Z,9.90
2018-09-17T22:24:30.972Z,10.80
2018-09-17T22:26:59.480Z,12.90
2018-09-17T22:29:28.068Z,10.50
2018-09-17T22:31:56.592Z,10.60
2018-09-17T22:34:25.064Z,15.03
2018-09-17T22:36:53.600Z,13.20
2018-09-17T22:39:22.062Z,12.50
2018-09-17T22:41:50.564Z,13.20
2018-09-17T22:44:18.997Z,10.07
2018-09-17T22:46:47.523Z,10.70
2018-09-17T22:49:16.005Z,12.37
2018-09-17T22:51:44.636Z,15.60
2018-09-17T22:54:13.121Z,12.90
2018-09-17T22:56:41.599Z,10.20
2018-09-17T22:59:10.041Z,12.80
2018-09-17T23:01:38.578Z,15.73
2018-09-17T23:04:07.119Z,11.40
2018-09-17T23:06:35.580Z,15.00
2018-09-17T23:09:05.667Z,12.60
2018-09-17T23:11:34.115Z,17.53
2018-09-17T23:14:02.662Z,17.23
2018-09-17T23:16:31.136Z,12.47
2018-09-17T23:18:59.618Z,15.90
2018-09-17T23:21:28.099Z,13.23
2018-09-17T23:23:56.561Z,35.47
2018-09-17T23:26:25.032Z,14.73
2018-09-17T23:28:53.511Z,17.33
2018-09-17T23:31:21.972Z,17.40
2018-09-17T23:33:50.434Z,20.13
2018-09-17T23:36:18.890Z,13.20
2018-09-17T23:38:47.427Z,16.37
2018-09-17T23:41:15.884Z,14.73
2018-09-17T23:43:44.402Z,17.47
2018-09-17T23:46:12.966Z,14.37
2018-09-17T23:48:41.439Z,12.80
2018-09-17T23:51:09.937Z,15.60
2018-09-17T23:53:38.491Z,14.13
2018-09-17T23:56:07.013Z,14.30
2018-09-17T23:58:35.511Z,14.03
